Terminal Aerodrome Forecast (TAF)

TAF

Data at: 0040 UTC 07 May 2021

TAF for:NVSC (Sola/Vanua Lava Arpt, TO, NV) issued at 2220 UTC 06 May 2021
Text:TAF NVSC 062220Z 0700/0724 12010KT 9999 SCT020
Forecast period:0000 UTC 07 May 2021 to 0000 UTC 08 May 2021
Forecast type:FROM: standard forecast or significant change
Winds:from the ESE (120 degrees) at 12 MPH (10 knots; 5.1 m/s)
Visibility:6 or more sm (10+ km)
Ceiling:at least 12,000 feet AGL
Clouds: scattered clouds at 2000 feet AGL
Text:PROB30
Forecast period:0000 to 0600 UTC 07 May 2021
Forecast type:TEMPORARY: The following changes expected for less than half the time period
Visibility: 6 sm ( 9 km)
Ceiling:1800 feet AGL
Clouds: broken clouds at 1800 feet AGL
Weather:-SHRA (light rain showers)

TAF

Data at: 0040 UTC 07 May 2021

TAF for:NVSG (Longana Arpt, PA, NV) issued at 2220 UTC 06 May 2021
Text:TAF NVSG 062220Z 0700/0724 10010KT 9999 SCT020
Forecast period:0000 UTC 07 May 2021 to 0000 UTC 08 May 2021
Forecast type:FROM: standard forecast or significant change
Winds:from the E (100 degrees) at 12 MPH (10 knots; 5.1 m/s)
Visibility:6 or more sm (10+ km)
Ceiling:at least 12,000 feet AGL
Clouds: scattered clouds at 2000 feet AGL
Text:PROB30
Forecast period:0000 to 0600 UTC 07 May 2021
Forecast type:TEMPORARY: The following changes expected for less than half the time period
Visibility: 6 sm ( 9 km)
Ceiling:1800 feet AGL
Clouds: broken clouds at 1800 feet AGL
Weather:-SHRA (light rain showers)

TAF

Data at: 0040 UTC 07 May 2021

TAF for:NVSS (Santo/Pekoa Intl, SA, NV) issued at 2220 UTC 06 May 2021
Text:TAF NVSS 062220Z 0700/0724 13010KT 9999 SCT020
Forecast period:0000 UTC 07 May 2021 to 0000 UTC 08 May 2021
Forecast type:FROM: standard forecast or significant change
Winds:from the SE (130 degrees) at 12 MPH (10 knots; 5.1 m/s)
Visibility:6 or more sm (10+ km)
Ceiling:at least 12,000 feet AGL
Clouds: scattered clouds at 2000 feet AGL
Text:PROB30
Forecast period:0000 to 0600 UTC 07 May 2021
Forecast type:TEMPORARY: The following changes expected for less than half the time period
Visibility: 6 sm ( 9 km)
Ceiling:1800 feet AGL
Clouds: broken clouds at 1800 feet AGL
Weather:-SHRA (light rain showers)

TAF

Data at: 0040 UTC 07 May 2021

TAF for:NVSL (Malekula Isl/Lamap, MA, NV) issued at 2220 UTC 06 May 2021
Text:TAF NVSL 062220Z 0700/0724 13010KT 9999 SCT020
Forecast period:0000 UTC 07 May 2021 to 0000 UTC 08 May 2021
Forecast type:FROM: standard forecast or significant change
Winds:from the SE (130 degrees) at 12 MPH (10 knots; 5.1 m/s)
Visibility:6 or more sm (10+ km)
Ceiling:at least 12,000 feet AGL
Clouds: scattered clouds at 2000 feet AGL

TAF

Data at: 0040 UTC 07 May 2021

TAF for:NVSP (Norsup Arpt, MA, NV) issued at 2220 UTC 06 May 2021
Text:TAF NVSP 062220Z 0700/0724 13010KT 9999 SCT020
Forecast period:0000 UTC 07 May 2021 to 0000 UTC 08 May 2021
Forecast type:FROM: standard forecast or significant change
Winds:from the SE (130 degrees) at 12 MPH (10 knots; 5.1 m/s)
Visibility:6 or more sm (10+ km)
Ceiling:at least 12,000 feet AGL
Clouds: scattered clouds at 2000 feet AGL

TAF

Data at: 0040 UTC 07 May 2021

TAF for:NVVV (Efate/Bauerfield Int, SE, NV) issued at 2220 UTC 06 May 2021
Text:TAF NVVV 062220Z 0700/0724 13010KT 9999 SCT020
Forecast period:0000 UTC 07 May 2021 to 0000 UTC 08 May 2021
Forecast type:FROM: standard forecast or significant change
Winds:from the SE (130 degrees) at 12 MPH (10 knots; 5.1 m/s)
Visibility:6 or more sm (10+ km)
Ceiling:at least 12,000 feet AGL
Clouds: scattered clouds at 2000 feet AGL

TAF

Data at: 0040 UTC 07 May 2021

TAF for:NVVW (Tanna Arpt, TA, NV) issued at 2220 UTC 06 May 2021
Text:TAF NVVW 062220Z 0700/0724 12010KT 9999 SCT020
Forecast period:0000 UTC 07 May 2021 to 0000 UTC 08 May 2021
Forecast type:FROM: standard forecast or significant change
Winds:from the ESE (120 degrees) at 12 MPH (10 knots; 5.1 m/s)
Visibility:6 or more sm (10+ km)
Ceiling:at least 12,000 feet AGL
Clouds: scattered clouds at 2000 feet AGL

TAF

Data at: 0040 UTC 07 May 2021

TAF for:NVVA (Aneityum/Mystery Isl, TA, NV) issued at 2220 UTC 06 May 2021
Text:TAF NVVA 062220Z 0700/0724 13010KT 9999 SCT020
Forecast period:0000 UTC 07 May 2021 to 0000 UTC 08 May 2021
Forecast type:FROM: standard forecast or significant change
Winds:from the SE (130 degrees) at 12 MPH (10 knots; 5.1 m/s)
Visibility:6 or more sm (10+ km)
Ceiling:at least 12,000 feet AGL
Clouds: scattered clouds at 2000 feet AGL
Text:PROB30
Forecast period:0000 to 0600 UTC 07 May 2021
Forecast type:TEMPORARY: The following changes expected for less than half the time period
Visibility: 6 sm ( 9 km)
Ceiling:1800 feet AGL
Clouds: broken clouds at 1800 feet AGL
Weather:-SHRA (light rain showers)

TAF

Data at: 0040 UTC 07 May 2021

TAF NVVV 062220Z 0700/0724 13010KT 9999 SCT020
TAF NVSC 062220Z 0700/0724 12010KT 9999 SCT020
  PROB30
  INTER 0700/0706 9000 -SHRA BKN018
TAF NVSG 062220Z 0700/0724 10010KT 9999 SCT020
  PROB30
  INTER 0700/0706 9000 -SHRA BKN018
TAF NVSS 062220Z 0700/0724 13010KT 9999 SCT020
  PROB30
  INTER 0700/0706 9000 -SHRA BKN018
TAF NVSL 062220Z 0700/0724 13010KT 9999 SCT020
TAF NVSP 062220Z 0700/0724 13010KT 9999 SCT020
TAF NVVW 062220Z 0700/0724 12010KT 9999 SCT020
TAF NVVA 062220Z 0700/0724 13010KT 9999 SCT020
  PROB30
  INTER 0700/0706 9000 -SHRA BKN018